sensor_id;sensor_type;location;lat;lon;timestamp;pressure;altitude;pressure_sealevel;temperature;humidity
8051;BME280;4068;42.158;24.732;2022-11-11T00:01:04;100787.56;;;6.72;100.00
8051;BME280;4068;42.158;24.732;2022-11-11T00:03:29;100785.00;;;6.71;100.00
8051;BME280;4068;42.158;24.732;2022-11-11T00:06:00;100777.31;;;6.66;100.00
8051;BME280;4068;42.158;24.732;2022-11-11T00:08:25;100787.00;;;6.66;100.00
8051;BME280;4068;42.158;24.732;2022-11-11T00:10:50;100780.03;;;6.65;100.00
8051;BME280;4068;42.158;24.732;2022-11-11T00:13:16;100788.00;;;6.63;100.00
8051;BME280;4068;42.158;24.732;2022-11-11T00:15:41;100789.81;;;6.61;100.00
8051;BME280;4068;42.158;24.732;2022-11-11T00:18:09;100780.16;;;6.62;100.00
8051;BME280;4068;42.158;24.732;2022-11-11T00:20:53;100780.94;;;6.64;100.00
8051;BME280;4068;42.158;24.732;2022-11-11T00:23:37;100774.97;;;6.60;100.00
8051;BME280;4068;42.158;24.732;2022-11-11T00:26:21;100745.19;;;6.37;100.00
8051;BME280;4068;42.158;24.732;2022-11-11T00:28:46;100775.81;;;6.61;100.00
8051;BME280;4068;42.158;24.732;2022-11-11T00:31:13;100754.53;;;6.45;100.00
8051;BME280;4068;42.158;24.732;2022-11-11T00:33:39;100740.13;;;6.33;100.00
8051;BME280;4068;42.158;24.732;2022-11-11T00:36:06;100782.19;;;6.55;100.00
8051;BME280;4068;42.158;24.732;2022-11-11T00:38:31;100793.81;;;6.51;100.00
8051;BME280;4068;42.158;24.732;2022-11-11T00:41:16;100767.41;;;6.32;100.00
8051;BME280;4068;42.158;24.732;2022-11-11T00:43:43;100787.44;;;6.36;100.00
8051;BME280;4068;42.158;24.732;2022-11-11T00:46:09;100786.81;;;6.29;100.00
8051;BME280;4068;42.158;24.732;2022-11-11T00:48:53;100777.69;;;6.17;100.00
8051;BME280;4068;42.158;24.732;2022-11-11T00:51:37;100769.03;;;6.14;100.00
8051;BME280;4068;42.158;24.732;2022-11-11T00:54:03;100769.31;;;6.08;100.00
8051;BME280;4068;42.158;24.732;2022-11-11T00:56:29;100774.03;;;5.99;100.00
8051;BME280;4068;42.158;24.732;2022-11-11T00:58:54;100756.75;;;5.92;100.00
8051;BME280;4068;42.158;24.732;2022-11-11T01:01:20;100773.31;;;5.94;100.00
8051;BME280;4068;42.158;24.732;2022-11-11T01:03:45;100768.13;;;5.93;100.00
8051;BME280;4068;42.158;24.732;2022-11-11T01:06:12;100760.22;;;5.93;100.00
8051;BME280;4068;42.158;24.732;2022-11-11T01:08:37;100738.31;;;5.72;100.00
8051;BME280;4068;42.158;24.732;2022-11-11T01:11:03;100771.94;;;5.85;100.00
8051;BME280;4068;42.158;24.732;2022-11-11T01:13:31;100754.75;;;5.77;100.00
8051;BME280;4068;42.158;24.732;2022-11-11T01:16:03;100754.75;;;5.77;100.00
8051;BME280;4068;42.158;24.732;2022-11-11T01:18:29;100753.69;;;5.81;100.00
8051;BME280;4068;42.158;24.732;2022-11-11T01:21:04;100748.50;;;5.79;100.00
8051;BME280;4068;42.158;24.732;2022-11-11T01:23:33;100738.31;;;5.72;100.00
8051;BME280;4068;42.158;24.732;2022-11-11T01:28:31;100728.88;;;5.66;100.00
8051;BME280;4068;42.158;24.732;2022-11-11T01:31:01;100752.78;;;5.82;100.00
8051;BME280;4068;42.158;24.732;2022-11-11T01:33:27;100751.91;;;5.81;100.00
8051;BME280;4068;42.158;24.732;2022-11-11T01:35:52;100743.09;;;5.82;100.00
8051;BME280;4068;42.158;24.732;2022-11-11T01:38:18;100747.31;;;5.86;100.00
8051;BME280;4068;42.158;24.732;2022-11-11T01:40:45;100730.75;;;5.84;100.00
8051;BME280;4068;42.158;24.732;2022-11-11T01:46:00;100728.91;;;5.86;100.00
8051;BME280;4068;42.158;24.732;2022-11-11T01:48:34;100735.00;;;5.87;100.00
8051;BME280;4068;42.158;24.732;2022-11-11T01:51:33;100739.22;;;5.91;100.00
8051;BME280;4068;42.158;24.732;2022-11-11T01:54:03;100740.81;;;5.95;100.00
8051;BME280;4068;42.158;24.732;2022-11-11T01:56:30;100745.16;;;5.96;100.00
8051;BME280;4068;42.158;24.732;2022-11-11T01:59:00;100694.31;;;5.74;100.00
8051;BME280;4068;42.158;24.732;2022-11-11T02:01:27;100732.91;;;5.95;100.00
8051;BME280;4068;42.158;24.732;2022-11-11T02:03:53;100718.44;;;5.85;100.00
8051;BME280;4068;42.158;24.732;2022-11-11T02:06:39;100745.38;;;5.92;100.00
8051;BME280;4068;42.158;24.732;2022-11-11T02:09:06;100742.81;;;5.90;100.00
8051;BME280;4068;42.158;24.732;2022-11-11T02:11:34;100739.28;;;5.90;100.00
8051;BME280;4068;42.158;24.732;2022-11-11T02:14:19;100741.16;;;5.87;100.00
8051;BME280;4068;42.158;24.732;2022-11-11T02:17:01;100741.69;;;5.96;100.00
8051;BME280;4068;42.158;24.732;2022-11-11T02:19:53;100741.50;;;6.00;100.00
8051;BME280;4068;42.158;24.732;2022-11-11T02:22:26;100748.03;;;6.12;100.00
8051;BME280;4068;42.158;24.732;2022-11-11T02:24:54;100757.31;;;6.21;100.00
8051;BME280;4068;42.158;24.732;2022-11-11T02:27:21;100761.25;;;6.31;100.00
8051;BME280;4068;42.158;24.732;2022-11-11T02:29:51;100768.09;;;6.35;100.00
8051;BME280;4068;42.158;24.732;2022-11-11T02:32:18;100761.88;;;6.17;100.00
8051;BME280;4068;42.158;24.732;2022-11-11T02:34:43;100743.84;;;5.86;100.00
8051;BME280;4068;42.158;24.732;2022-11-11T02:37:09;100770.19;;;5.64;100.00
8051;BME280;4068;42.158;24.732;2022-11-11T02:39:41;100766.19;;;5.31;100.00
8051;BME280;4068;42.158;24.732;2022-11-11T02:42:08;100763.25;;;5.17;100.00
8051;BME280;4068;42.158;24.732;2022-11-11T02:44:35;100766.75;;;5.17;100.00
8051;BME280;4068;42.158;24.732;2022-11-11T02:47:02;100730.19;;;4.88;100.00
8051;BME280;4068;42.158;24.732;2022-11-11T02:49:27;100764.00;;;4.97;100.00
8051;BME280;4068;42.158;24.732;2022-11-11T02:51:53;100726.47;;;4.70;100.00
8051;BME280;4068;42.158;24.732;2022-11-11T02:54:18;100758.41;;;4.82;100.00
8051;BME280;4068;42.158;24.732;2022-11-11T02:56:43;100752.63;;;4.73;100.00
8051;BME280;4068;42.158;24.732;2022-11-11T02:59:27;100768.06;;;4.82;100.00
8051;BME280;4068;42.158;24.732;2022-11-11T03:01:53;100763.59;;;4.84;100.00
8051;BME280;4068;42.158;24.732;2022-11-11T03:04:18;100758.88;;;4.94;100.00
8051;BME280;4068;42.158;24.732;2022-11-11T03:06:43;100763.72;;;5.05;100.00
8051;BME280;4068;42.158;24.732;2022-11-11T03:09:09;100775.44;;;5.19;100.00
8051;BME280;4068;42.158;24.732;2022-11-11T03:11:34;100770.34;;;5.15;100.00
8051;BME280;4068;42.158;24.732;2022-11-11T03:14:03;100766.06;;;5.12;100.00
8051;BME280;4068;42.158;24.732;2022-11-11T03:16:28;100773.81;;;5.15;100.00
8051;BME280;4068;42.158;24.732;2022-11-11T03:19:12;100770.22;;;5.18;100.00
8051;BME280;4068;42.158;24.732;2022-11-11T03:21:37;100773.03;;;5.13;100.00
8051;BME280;4068;42.158;24.732;2022-11-11T03:24:03;100772.34;;;5.08;100.00
8051;BME280;4068;42.158;24.732;2022-11-11T03:26:29;100766.97;;;5.11;100.00
8051;BME280;4068;42.158;24.732;2022-11-11T03:28:54;100759.13;;;5.10;100.00
8051;BME280;4068;42.158;24.732;2022-11-11T03:31:20;100725.72;;;4.90;100.00
8051;BME280;4068;42.158;24.732;2022-11-11T03:33:45;100779.22;;;5.12;100.00
8051;BME280;4068;42.158;24.732;2022-11-11T03:36:11;100761.81;;;5.08;100.00
8051;BME280;4068;42.158;24.732;2022-11-11T03:38:36;100766.31;;;5.06;100.00
8051;BME280;4068;42.158;24.732;2022-11-11T03:41:02;100739.09;;;4.83;100.00
8051;BME280;4068;42.158;24.732;2022-11-11T03:43:29;100744.25;;;4.87;100.00
8051;BME280;4068;42.158;24.732;2022-11-11T03:45:57;100758.03;;;4.93;100.00
8051;BME280;4068;42.158;24.732;2022-11-11T03:48:25;100758.94;;;4.92;100.00
8051;BME280;4068;42.158;24.732;2022-11-11T03:50:51;100761.56;;;4.92;100.00
8051;BME280;4068;42.158;24.732;2022-11-11T03:53:18;100727.84;;;4.80;100.00
8051;BME280;4068;42.158;24.732;2022-11-11T03:55:47;100757.16;;;4.93;100.00
8051;BME280;4068;42.158;24.732;2022-11-11T03:58:13;100743.41;;;4.86;100.00
8051;BME280;4068;42.158;24.732;2022-11-11T04:00:39;100743.28;;;4.89;100.00
8051;BME280;4068;42.158;24.732;2022-11-11T04:03:16;100760.47;;;4.98;100.00
8051;BME280;4068;42.158;24.732;2022-11-11T04:06:00;100750.78;;;4.98;100.00
8051;BME280;4068;42.158;24.732;2022-11-11T04:08:44;100752.53;;;4.99;100.00
8051;BME280;4068;42.158;24.732;2022-11-11T04:11:47;100753.28;;;5.03;100.00
8051;BME280;4068;42.158;24.732;2022-11-11T04:14:13;100736.28;;;5.12;100.00
8051;BME280;4068;42.158;24.732;2022-11-11T04:16:58;100745.06;;;5.34;100.00
8051;BME280;4068;42.158;24.732;2022-11-11T04:19:23;100774.41;;;5.90;100.00
8051;BME280;4068;42.158;24.732;2022-11-11T04:22:08;100771.88;;;5.87;100.00
8051;BME280;4068;42.158;24.732;2022-11-11T04:24:34;100763.31;;;5.82;100.00
8051;BME280;4068;42.158;24.732;2022-11-11T04:27:18;100764.44;;;5.76;100.00
8051;BME280;4068;42.158;24.732;2022-11-11T04:29:44;100776.34;;;5.85;100.00
8051;BME280;4068;42.158;24.732;2022-11-11T04:32:19;100760.09;;;5.53;100.00
8051;BME280;4068;42.158;24.732;2022-11-11T04:35:05;100779.50;;;5.50;100.00
8051;BME280;4068;42.158;24.732;2022-11-11T04:37:33;100759.19;;;5.32;100.00
8051;BME280;4068;42.158;24.732;2022-11-11T04:39:59;100787.28;;;5.30;100.00
8051;BME280;4068;42.158;24.732;2022-11-11T04:42:43;100783.06;;;5.26;100.00
8051;BME280;4068;42.158;24.732;2022-11-11T04:45:10;100770.81;;;5.03;100.00
8051;BME280;4068;42.158;24.732;2022-11-11T04:48:06;100787.50;;;5.01;100.00
8051;BME280;4068;42.158;24.732;2022-11-11T04:50:37;100788.44;;;5.00;100.00
8051;BME280;4068;42.158;24.732;2022-11-11T04:53:06;100782.06;;;4.82;100.00
8051;BME280;4068;42.158;24.732;2022-11-11T04:55:31;100784.63;;;4.84;100.00
8051;BME280;4068;42.158;24.732;2022-11-11T04:58:20;100795.03;;;4.87;100.00
8051;BME280;4068;42.158;24.732;2022-11-11T05:00:46;100791.56;;;4.87;100.00
8051;BME280;4068;42.158;24.732;2022-11-11T05:03:12;100792.59;;;4.82;100.00
8051;BME280;4068;42.158;24.732;2022-11-11T05:08:34;100775.75;;;4.63;100.00
8051;BME280;4068;42.158;24.732;2022-11-11T05:11:19;100754.28;;;4.52;100.00
8051;BME280;4068;42.158;24.732;2022-11-11T05:13:45;100774.63;;;4.70;100.00
8051;BME280;4068;42.158;24.732;2022-11-11T05:16:32;100796.81;;;4.87;100.00
8051;BME280;4068;42.158;24.732;2022-11-11T05:19:16;100786.13;;;4.91;100.00
8051;BME280;4068;42.158;24.732;2022-11-11T05:22:29;100794.41;;;5.04;100.00
8051;BME280;4068;42.158;24.732;2022-11-11T05:24:51;100773.31;;;5.06;100.00
8051;BME280;4068;42.158;24.732;2022-11-11T05:27:35;100808.00;;;5.15;100.00
8051;BME280;4068;42.158;24.732;2022-11-11T05:30:02;100788.44;;;5.23;100.00
8051;BME280;4068;42.158;24.732;2022-11-11T05:32:28;100792.69;;;5.27;100.00
8051;BME280;4068;42.158;24.732;2022-11-11T05:34:53;100787.16;;;5.33;100.00
8051;BME280;4068;42.158;24.732;2022-11-11T05:37:19;100803.13;;;5.52;100.00
8051;BME280;4068;42.158;24.732;2022-11-11T05:39:45;100772.31;;;5.54;100.00
8051;BME280;4068;42.158;24.732;2022-11-11T05:42:10;100811.28;;;5.88;100.00
8051;BME280;4068;42.158;24.732;2022-11-11T05:44:36;100811.72;;;6.01;100.00
8051;BME280;4068;42.158;24.732;2022-11-11T05:47:02;100769.91;;;5.92;100.00
8051;BME280;4068;42.158;24.732;2022-11-11T05:49:28;100806.19;;;6.28;100.00
8051;BME280;4068;42.158;24.732;2022-11-11T05:51:53;100795.41;;;6.34;100.00
8051;BME280;4068;42.158;24.732;2022-11-11T05:54:22;100796.56;;;6.48;100.00
8051;BME280;4068;42.158;24.732;2022-11-11T05:56:48;100816.56;;;6.72;100.00
8051;BME280;4068;42.158;24.732;2022-11-11T05:59:14;100815.13;;;6.86;100.00
8051;BME280;4068;42.158;24.732;2022-11-11T06:01:39;100817.41;;;6.94;100.00
8051;BME280;4068;42.158;24.732;2022-11-11T06:04:05;100797.81;;;6.99;100.00
8051;BME280;4068;42.158;24.732;2022-11-11T06:06:32;100785.75;;;6.94;100.00
8051;BME280;4068;42.158;24.732;2022-11-11T06:08:58;100814.38;;;7.22;100.00
8051;BME280;4068;42.158;24.732;2022-11-11T06:11:25;100818.50;;;7.28;100.00
8051;BME280;4068;42.158;24.732;2022-11-11T06:13:52;100826.28;;;7.31;100.00
8051;BME280;4068;42.158;24.732;2022-11-11T06:16:17;100836.28;;;7.43;100.00
8051;BME280;4068;42.158;24.732;2022-11-11T06:18:43;100779.72;;;7.30;100.00
8051;BME280;4068;42.158;24.732;2022-11-11T06:21:08;100832.72;;;7.81;100.00
8051;BME280;4068;42.158;24.732;2022-11-11T06:23:33;100836.19;;;8.00;100.00
8051;BME280;4068;42.158;24.732;2022-11-11T06:25:59;100848.66;;;8.16;100.00
8051;BME280;4068;42.158;24.732;2022-11-11T06:28:44;100846.09;;;8.32;100.00
8051;BME280;4068;42.158;24.732;2022-11-11T06:31:12;100858.69;;;8.44;100.00
8051;BME280;4068;42.158;24.732;2022-11-11T06:33:38;100864.47;;;8.52;100.00
8051;BME280;4068;42.158;24.732;2022-11-11T06:36:04;100861.69;;;8.55;100.00
8051;BME280;4068;42.158;24.732;2022-11-11T06:38:30;100857.53;;;8.67;100.00
8051;BME280;4068;42.158;24.732;2022-11-11T06:40:56;100874.56;;;8.96;100.00
8051;BME280;4068;42.158;24.732;2022-11-11T06:43:22;100860.19;;;9.01;100.00
8051;BME280;4068;42.158;24.732;2022-11-11T06:45:51;100864.47;;;9.21;100.00
8051;BME280;4068;42.158;24.732;2022-11-11T06:48:17;100881.13;;;9.55;100.00
8051;BME280;4068;42.158;24.732;2022-11-11T06:50:42;100865.69;;;9.63;100.00
8051;BME280;4068;42.158;24.732;2022-11-11T06:53:15;100873.97;;;9.73;100.00
8051;BME280;4068;42.158;24.732;2022-11-11T06:55:41;100885.75;;;10.15;100.00
8051;BME280;4068;42.158;24.732;2022-11-11T06:58:12;100879.13;;;10.38;100.00
8051;BME280;4068;42.158;24.732;2022-11-11T07:00:39;100848.56;;;10.47;100.00
8051;BME280;4068;42.158;24.732;2022-11-11T07:03:06;100882.00;;;10.94;100.00
8051;BME280;4068;42.158;24.732;2022-11-11T07:05:32;100878.22;;;11.13;100.00
8051;BME280;4068;42.158;24.732;2022-11-11T07:08:02;100865.41;;;11.48;100.00
8051;BME280;4068;42.158;24.732;2022-11-11T07:10:28;100871.97;;;11.84;100.00
8051;BME280;4068;42.158;24.732;2022-11-11T07:12:53;100859.91;;;12.20;100.00
8051;BME280;4068;42.158;24.732;2022-11-11T07:15:19;100850.94;;;12.62;100.00
8051;BME280;4068;42.158;24.732;2022-11-11T07:17:44;100863.09;;;13.17;100.00
8051;BME280;4068;42.158;24.732;2022-11-11T07:20:10;100847.50;;;13.50;99.05
8051;BME280;4068;42.158;24.732;2022-11-11T07:22:35;100854.41;;;13.89;99.70
8051;BME280;4068;42.158;24.732;2022-11-11T07:25:01;100847.31;;;14.25;97.90
8051;BME280;4068;42.158;24.732;2022-11-11T07:27:27;100839.09;;;14.75;96.16
8051;BME280;4068;42.158;24.732;2022-11-11T07:29:52;100837.41;;;15.08;95.06
8051;BME280;4068;42.158;24.732;2022-11-11T07:32:18;100843.00;;;15.39;94.09
8051;BME280;4068;42.158;24.732;2022-11-11T07:34:43;100848.13;;;15.75;93.09
8051;BME280;4068;42.158;24.732;2022-11-11T07:37:09;100826.97;;;15.94;91.32
8051;BME280;4068;42.158;24.732;2022-11-11T07:39:34;100860.25;;;16.34;89.92
8051;BME280;4068;42.158;24.732;2022-11-11T07:42:00;100859.72;;;16.40;88.59
8051;BME280;4068;42.158;24.732;2022-11-11T07:44:25;100857.00;;;16.51;88.42
8051;BME280;4068;42.158;24.732;2022-11-11T07:46:51;100863.66;;;16.78;88.19
8051;BME280;4068;42.158;24.732;2022-11-11T07:49:16;100851.31;;;16.87;87.95
8051;BME280;4068;42.158;24.732;2022-11-11T07:51:41;100853.00;;;17.09;87.65
8051;BME280;4068;42.158;24.732;2022-11-11T07:54:07;100851.66;;;17.24;87.45
8051;BME280;4068;42.158;24.732;2022-11-11T07:56:32;100854.94;;;17.38;86.67
8051;BME280;4068;42.158;24.732;2022-11-11T07:58:58;100850.75;;;17.45;86.66
8051;BME280;4068;42.158;24.732;2022-11-11T08:01:23;100857.38;;;17.51;86.64
8051;BME280;4068;42.158;24.732;2022-11-11T08:03:48;100832.94;;;17.44;85.98
8051;BME280;4068;42.158;24.732;2022-11-11T08:06:19;100855.59;;;17.71;86.21
8051;BME280;4068;42.158;24.732;2022-11-11T08:08:45;100859.44;;;17.78;86.07
8051;BME280;4068;42.158;24.732;2022-11-11T08:11:11;100861.06;;;18.00;85.36
8051;BME280;4068;42.158;24.732;2022-11-11T08:13:36;100858.38;;;18.20;83.79
8051;BME280;4068;42.158;24.732;2022-11-11T08:16:08;100859.66;;;18.16;82.62
8051;BME280;4068;42.158;24.732;2022-11-11T08:18:34;100841.72;;;18.16;83.54
8051;BME280;4068;42.158;24.732;2022-11-11T08:21:01;100858.78;;;18.25;82.85
8051;BME280;4068;42.158;24.732;2022-11-11T08:23:27;100858.06;;;18.33;81.48
8051;BME280;4068;42.158;24.732;2022-11-11T08:26:04;100853.88;;;18.30;81.39
8051;BME280;4068;42.158;24.732;2022-11-11T08:28:31;100838.00;;;18.27;80.73
8051;BME280;4068;42.158;24.732;2022-11-11T08:30:58;100863.88;;;18.18;80.60
8051;BME280;4068;42.158;24.732;2022-11-11T08:33:24;100858.38;;;18.10;81.43
8051;BME280;4068;42.158;24.732;2022-11-11T08:35:50;100869.41;;;17.97;82.64
8051;BME280;4068;42.158;24.732;2022-11-11T08:38:19;100870.09;;;17.99;83.21
8051;BME280;4068;42.158;24.732;2022-11-11T08:40:44;100861.88;;;17.91;83.95
8051;BME280;4068;42.158;24.732;2022-11-11T08:43:10;100829.63;;;17.62;84.16
8051;BME280;4068;42.158;24.732;2022-11-11T08:45:36;100862.84;;;17.80;84.92
8051;BME280;4068;42.158;24.732;2022-11-11T08:48:02;100873.81;;;17.77;84.87
8051;BME280;4068;42.158;24.732;2022-11-11T08:50:28;100871.84;;;17.69;85.36
8051;BME280;4068;42.158;24.732;2022-11-11T08:52:53;100880.31;;;17.65;86.04
8051;BME280;4068;42.158;24.732;2022-11-11T08:55:18;100874.81;;;17.66;85.88
8051;BME280;4068;42.158;24.732;2022-11-11T08:57:44;100882.56;;;17.69;85.99
8051;BME280;4068;42.158;24.732;2022-11-11T09:00:11;100882.44;;;17.71;85.99
8051;BME280;4068;42.158;24.732;2022-11-11T09:02:37;100858.13;;;17.63;85.94
8051;BME280;4068;42.158;24.732;2022-11-11T09:05:03;100850.19;;;17.51;86.08
8051;BME280;4068;42.158;24.732;2022-11-11T09:07:29;100881.63;;;17.80;85.54
8051;BME280;4068;42.158;24.732;2022-11-11T09:09:54;100885.72;;;17.84;85.91
8051;BME280;4068;42.158;24.732;2022-11-11T09:12:20;100881.06;;;17.86;85.10
8051;BME280;4068;42.158;24.732;2022-11-11T09:14:45;100880.00;;;17.99;84.44
8051;BME280;4068;42.158;24.732;2022-11-11T09:17:12;100884.78;;;17.95;84.35
8051;BME280;4068;42.158;24.732;2022-11-11T09:19:37;100881.94;;;17.97;84.44
8051;BME280;4068;42.158;24.732;2022-11-11T09:22:03;100890.31;;;18.03;83.90
8051;BME280;4068;42.158;24.732;2022-11-11T09:24:28;100889.19;;;18.16;83.13
8051;BME280;4068;42.158;24.732;2022-11-11T09:26:54;100881.97;;;18.06;82.51
8051;BME280;4068;42.158;24.732;2022-11-11T09:29:19;100856.66;;;17.99;82.71
8051;BME280;4068;42.158;24.732;2022-11-11T09:31:45;100882.81;;;18.17;80.68
8051;BME280;4068;42.158;24.732;2022-11-11T09:34:11;100882.53;;;18.00;80.42
8051;BME280;4068;42.158;24.732;2022-11-11T09:36:37;100884.72;;;17.85;80.74
8051;BME280;4068;42.158;24.732;2022-11-11T09:39:02;100887.38;;;17.75;81.22
8051;BME280;4068;42.158;24.732;2022-11-11T09:43:59;100880.66;;;17.40;82.31
8051;BME280;4068;42.158;24.732;2022-11-11T09:54:30;100881.31;;;17.02;84.68
8051;BME280;4068;42.158;24.732;2022-11-11T09:57:01;100873.81;;;16.96;84.64
8051;BME280;4068;42.158;24.732;2022-11-11T09:59:42;100873.09;;;16.94;85.01
8051;BME280;4068;42.158;24.732;2022-11-11T10:04:56;100882.69;;;16.75;87.09
8051;BME280;4068;42.158;24.732;2022-11-11T10:07:30;100882.28;;;16.59;88.39
8051;BME280;4068;42.158;24.732;2022-11-11T10:10:05;100880.41;;;16.49;89.37
8051;BME280;4068;42.158;24.732;2022-11-11T10:12:37;100872.75;;;16.45;89.69
8051;BME280;4068;42.158;24.732;2022-11-11T10:15:10;100882.94;;;16.51;89.79
8051;BME280;4068;42.158;24.732;2022-11-11T10:17:42;100872.00;;;16.43;89.86
8051;BME280;4068;42.158;24.732;2022-11-11T10:20:29;100857.06;;;16.19;90.35
8051;BME280;4068;42.158;24.732;2022-11-11T10:25:41;100878.97;;;16.13;91.08
8051;BME280;4068;42.158;24.732;2022-11-11T10:28:18;100886.97;;;16.13;91.83
8051;BME280;4068;42.158;24.732;2022-11-11T10:30:45;100882.03;;;16.08;91.98
8051;BME280;4068;42.158;24.732;2022-11-11T10:33:17;100859.31;;;15.91;91.81
8051;BME280;4068;42.158;24.732;2022-11-11T10:35:44;100883.75;;;15.98;92.10
8051;BME280;4068;42.158;24.732;2022-11-11T10:38:25;100886.19;;;16.01;92.39
8051;BME280;4068;42.158;24.732;2022-11-11T10:41:03;100884.59;;;15.98;92.03
8051;BME280;4068;42.158;24.732;2022-11-11T10:43:30;100880.81;;;16.01;91.98
8051;BME280;4068;42.158;24.732;2022-11-11T10:48:42;100883.88;;;15.96;91.71
8051;BME280;4068;42.158;24.732;2022-11-11T10:51:12;100886.53;;;16.08;91.51
8051;BME280;4068;42.158;24.732;2022-11-11T11:02:04;100880.53;;;16.15;91.27
8051;BME280;4068;42.158;24.732;2022-11-11T11:04:39;100879.31;;;16.19;91.52
8051;BME280;4068;42.158;24.732;2022-11-11T11:07:08;100864.38;;;16.05;91.66
8051;BME280;4068;42.158;24.732;2022-11-11T11:09:41;100874.56;;;16.12;91.68
8051;BME280;4068;42.158;24.732;2022-11-11T11:14:43;100877.75;;;16.05;92.37
8051;BME280;4068;42.158;24.732;2022-11-11T11:17:16;100874.13;;;16.07;92.21
8051;BME280;4068;42.158;24.732;2022-11-11T11:19:44;100876.56;;;15.98;91.23
8051;BME280;4068;42.158;24.732;2022-11-11T11:22:52;100863.72;;;15.92;91.81
8051;BME280;4068;42.158;24.732;2022-11-11T11:25:22;100865.66;;;15.90;91.86
8051;BME280;4068;42.158;24.732;2022-11-11T11:27:49;100860.81;;;15.73;93.06
8051;BME280;4068;42.158;24.732;2022-11-11T11:30:20;100868.69;;;15.74;92.85
8051;BME280;4068;42.158;24.732;2022-11-11T11:32:57;100856.91;;;15.77;92.78
8051;BME280;4068;42.158;24.732;2022-11-11T11:35:30;100853.63;;;15.73;93.22
8051;BME280;4068;42.158;24.732;2022-11-11T11:37:57;100850.72;;;15.76;93.13
8051;BME280;4068;42.158;24.732;2022-11-11T11:40:22;100833.13;;;15.51;93.83
8051;BME280;4068;42.158;24.732;2022-11-11T11:42:48;100855.22;;;15.64;94.40
8051;BME280;4068;42.158;24.732;2022-11-11T11:47:56;100834.69;;;15.65;94.43
8051;BME280;4068;42.158;24.732;2022-11-11T11:55:47;100833.66;;;15.88;93.89
8051;BME280;4068;42.158;24.732;2022-11-11T12:01:12;100836.78;;;16.05;92.89
8051;BME280;4068;42.158;24.732;2022-11-11T12:06:52;100843.94;;;16.37;92.58
8051;BME280;4068;42.158;24.732;2022-11-11T12:09:23;100845.31;;;16.52;92.71
8051;BME280;4068;42.158;24.732;2022-11-11T12:20:25;100827.75;;;16.38;95.53
8051;BME280;4068;42.158;24.732;2022-11-11T12:30:50;100828.97;;;16.34;96.13
8051;BME280;4068;42.158;24.732;2022-11-11T12:36:42;100832.06;;;15.97;98.64
8051;BME280;4068;42.158;24.732;2022-11-11T12:44:33;100825.53;;;15.90;99.44
8051;BME280;4068;42.158;24.732;2022-11-11T12:49:45;100839.47;;;16.05;99.03
8051;BME280;4068;42.158;24.732;2022-11-11T12:54:56;100837.69;;;15.83;100.00
8051;BME280;4068;42.158;24.732;2022-11-11T12:57:41;100837.38;;;15.65;100.00
8051;BME280;4068;42.158;24.732;2022-11-11T13:11:11;100839.72;;;15.35;100.00
8051;BME280;4068;42.158;24.732;2022-11-11T13:16:21;100842.25;;;15.37;100.00
8051;BME280;4068;42.158;24.732;2022-11-11T13:19:47;100804.47;;;15.19;100.00
8051;BME280;4068;42.158;24.732;2022-11-11T13:21:52;100845.56;;;15.41;100.00
8051;BME280;4068;42.158;24.732;2022-11-11T13:24:21;100843.97;;;15.38;100.00
8051;BME280;4068;42.158;24.732;2022-11-11T13:26:54;100848.69;;;15.34;100.00
8051;BME280;4068;42.158;24.732;2022-11-11T13:31:48;100837.75;;;15.38;100.00
8051;BME280;4068;42.158;24.732;2022-11-11T13:34:15;100842.13;;;15.39;100.00
8051;BME280;4068;42.158;24.732;2022-11-11T13:36:50;100814.22;;;15.20;100.00
8051;BME280;4068;42.158;24.732;2022-11-11T13:39:24;100847.03;;;15.33;100.00
8051;BME280;4068;42.158;24.732;2022-11-11T13:41:54;100847.13;;;15.32;100.00
8051;BME280;4068;42.158;24.732;2022-11-11T13:44:24;100835.22;;;15.25;100.00
8051;BME280;4068;42.158;24.732;2022-11-11T13:46:51;100845.78;;;15.26;100.00
8051;BME280;4068;42.158;24.732;2022-11-11T13:49:42;100847.59;;;15.26;100.00
8051;BME280;4068;42.158;24.732;2022-11-11T13:52:35;100843.34;;;15.23;100.00
8051;BME280;4068;42.158;24.732;2022-11-11T13:55:05;100841.81;;;15.09;100.00
8051;BME280;4068;42.158;24.732;2022-11-11T13:57:33;100851.38;;;15.00;100.00
8051;BME280;4068;42.158;24.732;2022-11-11T14:00:24;100832.66;;;14.89;100.00
8051;BME280;4068;42.158;24.732;2022-11-11T14:14:43;100856.13;;;14.97;100.00
8051;BME280;4068;42.158;24.732;2022-11-11T14:21:48;100862.66;;;14.81;100.00
8051;BME280;4068;42.158;24.732;2022-11-11T14:29:38;100881.91;;;14.62;100.00
8051;BME280;4068;42.158;24.732;2022-11-11T14:35:35;100870.38;;;14.38;100.00
8051;BME280;4068;42.158;24.732;2022-11-11T14:40:41;100842.16;;;14.11;100.00
8051;BME280;4068;42.158;24.732;2022-11-11T14:46:04;100871.56;;;13.98;100.00
8051;BME280;4068;42.158;24.732;2022-11-11T14:48:50;100869.03;;;13.84;100.00
8051;BME280;4068;42.158;24.732;2022-11-11T14:51:39;100880.63;;;13.95;100.00
8051;BME280;4068;42.158;24.732;2022-11-11T14:54:16;100870.50;;;13.88;100.00
8051;BME280;4068;42.158;24.732;2022-11-11T14:56:42;100873.75;;;13.80;100.00
8051;BME280;4068;42.158;24.732;2022-11-11T14:59:10;100871.88;;;13.56;100.00
8051;BME280;4068;42.158;24.732;2022-11-11T15:01:38;100880.31;;;13.63;100.00
8051;BME280;4068;42.158;24.732;2022-11-11T15:04:04;100856.25;;;13.52;100.00
8051;BME280;4068;42.158;24.732;2022-11-11T15:06:58;100885.28;;;13.68;100.00
8051;BME280;4068;42.158;24.732;2022-11-11T15:09:42;100889.69;;;13.69;100.00
8051;BME280;4068;42.158;24.732;2022-11-11T15:15:13;100861.03;;;13.34;100.00
8051;BME280;4068;42.158;24.732;2022-11-11T15:23:37;100897.28;;;13.49;100.00
8051;BME280;4068;42.158;24.732;2022-11-11T15:32:15;100903.03;;;13.56;100.00
8051;BME280;4068;42.158;24.732;2022-11-11T15:37:51;100906.03;;;13.51;100.00
8051;BME280;4068;42.158;24.732;2022-11-11T15:40:23;100913.47;;;13.59;100.00